Campinas, Brazil
Current Conditions -  °F | °C
As of 2:00 AM on Wednesday 22 Oct 2014 (Local Time) from SBKP Reporting Station
Broken Clouds Broken Clouds  
Wind Chill: 63°   Ceiling: 4000
Heat Index: 63°   Visibility: 6mi
Dew Point: 54°   Wind: 20mph
Humidity: 72%   Direction: 130°SE
Pressure: 30.12"   Gusts: NA
Location:  22.91°S, 47.08°W
Report Text: SBKP 220400Z 13017KT 9999 BKN040 17/12 Q1020
Loading
Personal Weather Stations






























Interactive Weather Map
Tropical Storm Tracking
New forecast layout! Learn more

10-Day Weather Forecast

Advertisements
Track Severe Weather on mobile